sensor_id;sensor_type;location;lat;lon;timestamp;P1;durP1;ratioP1;P2;durP2;ratioP2
19778;SDS011;10049;59.306;18.090;2022-08-14T00:01:29;1.40;;;0.90;;
19778;SDS011;10049;59.306;18.090;2022-08-14T00:03:57;1.17;;;1.08;;
19778;SDS011;10049;59.306;18.090;2022-08-14T00:06:24;5.30;;;1.08;;
19778;SDS011;10049;59.306;18.090;2022-08-14T00:08:52;1.45;;;1.00;;
19778;SDS011;10049;59.306;18.090;2022-08-14T00:11:21;1.45;;;0.93;;
19778;SDS011;10049;59.306;18.090;2022-08-14T00:13:48;2.47;;;1.00;;
19778;SDS011;10049;59.306;18.090;2022-08-14T00:16:16;1.20;;;1.00;;
19778;SDS011;10049;59.306;18.090;2022-08-14T00:18:44;1.95;;;1.00;;
19778;SDS011;10049;59.306;18.090;2022-08-14T00:21:11;0.85;;;0.80;;
19778;SDS011;10049;59.306;18.090;2022-08-14T00:23:39;1.25;;;1.00;;
19778;SDS011;10049;59.306;18.090;2022-08-14T00:26:07;3.20;;;1.00;;
19778;SDS011;10049;59.306;18.090;2022-08-14T00:28:36;1.20;;;1.10;;
19778;SDS011;10049;59.306;18.090;2022-08-14T00:31:05;1.40;;;0.90;;
19778;SDS011;10049;59.306;18.090;2022-08-14T00:33:33;1.38;;;1.00;;
19778;SDS011;10049;59.306;18.090;2022-08-14T00:36:00;2.45;;;1.10;;
19778;SDS011;10049;59.306;18.090;2022-08-14T00:38:28;1.20;;;1.10;;
19778;SDS011;10049;59.306;18.090;2022-08-14T00:40:56;1.08;;;0.95;;
19778;SDS011;10049;59.306;18.090;2022-08-14T00:43:23;3.95;;;1.10;;
19778;SDS011;10049;59.306;18.090;2022-08-14T00:45:52;1.73;;;1.17;;
19778;SDS011;10049;59.306;18.090;2022-08-14T00:48:19;1.17;;;1.05;;
19778;SDS011;10049;59.306;18.090;2022-08-14T00:50:47;1.35;;;1.10;;
19778;SDS011;10049;59.306;18.090;2022-08-14T00:53:14;1.40;;;0.90;;
19778;SDS011;10049;59.306;18.090;2022-08-14T00:55:43;2.42;;;0.90;;
19778;SDS011;10049;59.306;18.090;2022-08-14T00:58:11;1.92;;;1.00;;
19778;SDS011;10049;59.306;18.090;2022-08-14T01:00:58;2.20;;;1.08;;
19778;SDS011;10049;59.306;18.090;2022-08-14T01:03:26;0.90;;;0.82;;
19778;SDS011;10049;59.306;18.090;2022-08-14T01:05:54;1.10;;;1.00;;
19778;SDS011;10049;59.306;18.090;2022-08-14T01:08:23;1.90;;;1.00;;
19778;SDS011;10049;59.306;18.090;2022-08-14T01:10:53;2.17;;;1.20;;
19778;SDS011;10049;59.306;18.090;2022-08-14T01:13:22;1.08;;;1.00;;
19778;SDS011;10049;59.306;18.090;2022-08-14T01:15:51;3.08;;;1.00;;
19778;SDS011;10049;59.306;18.090;2022-08-14T01:18:20;3.70;;;1.10;;
19778;SDS011;10049;59.306;18.090;2022-08-14T01:21:06;1.20;;;1.10;;
19778;SDS011;10049;59.306;18.090;2022-08-14T01:23:39;1.55;;;1.10;;
19778;SDS011;10049;59.306;18.090;2022-08-14T01:26:07;1.05;;;1.05;;
19778;SDS011;10049;59.306;18.090;2022-08-14T01:28:35;0.88;;;0.88;;
19778;SDS011;10049;59.306;18.090;2022-08-14T01:31:03;1.20;;;1.10;;
19778;SDS011;10049;59.306;18.090;2022-08-14T01:33:32;1.10;;;1.05;;
19778;SDS011;10049;59.306;18.090;2022-08-14T01:36:03;1.00;;;0.90;;
19778;SDS011;10049;59.306;18.090;2022-08-14T01:38:31;1.45;;;1.10;;
19778;SDS011;10049;59.306;18.090;2022-08-14T01:41:01;1.05;;;0.93;;
19778;SDS011;10049;59.306;18.090;2022-08-14T01:43:29;1.60;;;0.90;;
19778;SDS011;10049;59.306;18.090;2022-08-14T01:46:02;0.98;;;0.98;;
19778;SDS011;10049;59.306;18.090;2022-08-14T01:48:30;1.08;;;0.80;;
19778;SDS011;10049;59.306;18.090;2022-08-14T01:50:58;1.85;;;1.10;;
19778;SDS011;10049;59.306;18.090;2022-08-14T01:53:26;1.15;;;1.08;;
19778;SDS011;10049;59.306;18.090;2022-08-14T01:55:58;1.10;;;0.90;;
19778;SDS011;10049;59.306;18.090;2022-08-14T01:58:29;1.33;;;1.00;;
19778;SDS011;10049;59.306;18.090;2022-08-14T02:00:56;1.33;;;1.23;;
19778;SDS011;10049;59.306;18.090;2022-08-14T02:03:30;1.08;;;1.05;;
19778;SDS011;10049;59.306;18.090;2022-08-14T02:06:00;1.00;;;1.00;;
19778;SDS011;10049;59.306;18.090;2022-08-14T02:08:27;1.50;;;1.20;;
19778;SDS011;10049;59.306;18.090;2022-08-14T02:10:56;3.17;;;1.10;;
19778;SDS011;10049;59.306;18.090;2022-08-14T02:13:45;1.23;;;1.13;;
19778;SDS011;10049;59.306;18.090;2022-08-14T02:16:13;1.63;;;1.02;;
19778;SDS011;10049;59.306;18.090;2022-08-14T02:18:42;1.58;;;1.20;;
19778;SDS011;10049;59.306;18.090;2022-08-14T02:21:10;2.63;;;1.23;;
19778;SDS011;10049;59.306;18.090;2022-08-14T02:23:39;2.75;;;1.10;;
19778;SDS011;10049;59.306;18.090;2022-08-14T02:26:13;0.90;;;0.90;;
19778;SDS011;10049;59.306;18.090;2022-08-14T02:28:42;1.00;;;1.00;;
19778;SDS011;10049;59.306;18.090;2022-08-14T02:31:11;1.00;;;1.00;;
19778;SDS011;10049;59.306;18.090;2022-08-14T02:33:40;2.00;;;1.23;;
19778;SDS011;10049;59.306;18.090;2022-08-14T02:36:08;1.98;;;1.20;;
19778;SDS011;10049;59.306;18.090;2022-08-14T02:38:37;1.35;;;1.15;;
19778;SDS011;10049;59.306;18.090;2022-08-14T02:41:07;1.48;;;1.15;;
19778;SDS011;10049;59.306;18.090;2022-08-14T02:43:34;1.00;;;0.90;;
19778;SDS011;10049;59.306;18.090;2022-08-14T02:46:03;1.33;;;1.10;;
19778;SDS011;10049;59.306;18.090;2022-08-14T02:48:34;2.92;;;1.20;;
19778;SDS011;10049;59.306;18.090;2022-08-14T02:51:03;1.20;;;1.10;;
19778;SDS011;10049;59.306;18.090;2022-08-14T02:53:31;1.52;;;1.10;;
19778;SDS011;10049;59.306;18.090;2022-08-14T02:55:59;1.13;;;1.02;;
19778;SDS011;10049;59.306;18.090;2022-08-14T02:58:26;1.17;;;1.08;;
19778;SDS011;10049;59.306;18.090;2022-08-14T03:00:55;1.08;;;1.02;;
19778;SDS011;10049;59.306;18.090;2022-08-14T03:03:22;1.92;;;1.25;;
19778;SDS011;10049;59.306;18.090;2022-08-14T03:05:52;1.10;;;1.00;;
19778;SDS011;10049;59.306;18.090;2022-08-14T03:08:19;3.20;;;1.20;;
19778;SDS011;10049;59.306;18.090;2022-08-14T03:10:47;1.20;;;1.10;;
19778;SDS011;10049;59.306;18.090;2022-08-14T03:13:15;2.70;;;1.17;;
19778;SDS011;10049;59.306;18.090;2022-08-14T03:15:43;1.30;;;1.10;;
19778;SDS011;10049;59.306;18.090;2022-08-14T03:18:14;1.80;;;1.13;;
19778;SDS011;10049;59.306;18.090;2022-08-14T03:20:42;1.38;;;1.00;;
19778;SDS011;10049;59.306;18.090;2022-08-14T03:23:12;1.60;;;1.02;;
19778;SDS011;10049;59.306;18.090;2022-08-14T03:25:39;2.03;;;1.10;;
19778;SDS011;10049;59.306;18.090;2022-08-14T03:28:08;1.88;;;1.27;;
19778;SDS011;10049;59.306;18.090;2022-08-14T03:30:36;1.80;;;1.00;;
19778;SDS011;10049;59.306;18.090;2022-08-14T03:33:03;3.90;;;1.08;;
19778;SDS011;10049;59.306;18.090;2022-08-14T03:35:32;1.83;;;1.10;;
19778;SDS011;10049;59.306;18.090;2022-08-14T03:38:03;2.60;;;1.00;;
19778;SDS011;10049;59.306;18.090;2022-08-14T03:40:34;1.60;;;1.05;;
19778;SDS011;10049;59.306;18.090;2022-08-14T03:43:03;0.90;;;0.90;;
19778;SDS011;10049;59.306;18.090;2022-08-14T03:45:32;1.42;;;1.00;;
19778;SDS011;10049;59.306;18.090;2022-08-14T03:48:00;1.45;;;1.10;;
19778;SDS011;10049;59.306;18.090;2022-08-14T03:50:29;1.05;;;0.93;;
19778;SDS011;10049;59.306;18.090;2022-08-14T03:52:58;1.80;;;0.85;;
19778;SDS011;10049;59.306;18.090;2022-08-14T03:55:26;0.82;;;0.82;;
19778;SDS011;10049;59.306;18.090;2022-08-14T03:57:55;1.17;;;0.90;;
19778;SDS011;10049;59.306;18.090;2022-08-14T04:00:22;1.35;;;0.90;;
19778;SDS011;10049;59.306;18.090;2022-08-14T04:02:49;1.05;;;0.82;;
19778;SDS011;10049;59.306;18.090;2022-08-14T04:05:17;0.88;;;0.80;;
19778;SDS011;10049;59.306;18.090;2022-08-14T04:07:45;1.23;;;0.90;;
19778;SDS011;10049;59.306;18.090;2022-08-14T04:10:12;0.93;;;0.90;;
19778;SDS011;10049;59.306;18.090;2022-08-14T04:12:40;1.08;;;1.00;;
19778;SDS011;10049;59.306;18.090;2022-08-14T04:15:09;1.58;;;0.95;;
19778;SDS011;10049;59.306;18.090;2022-08-14T04:17:40;1.42;;;1.00;;
19778;SDS011;10049;59.306;18.090;2022-08-14T04:20:09;1.00;;;1.00;;
19778;SDS011;10049;59.306;18.090;2022-08-14T04:22:40;1.10;;;0.88;;
19778;SDS011;10049;59.306;18.090;2022-08-14T04:25:10;1.90;;;0.90;;
19778;SDS011;10049;59.306;18.090;2022-08-14T04:27:37;0.77;;;0.77;;
19778;SDS011;10049;59.306;18.090;2022-08-14T04:30:05;0.90;;;0.90;;
19778;SDS011;10049;59.306;18.090;2022-08-14T04:32:35;1.38;;;0.75;;
19778;SDS011;10049;59.306;18.090;2022-08-14T04:35:02;0.80;;;0.70;;
19778;SDS011;10049;59.306;18.090;2022-08-14T04:37:31;3.22;;;0.80;;
19778;SDS011;10049;59.306;18.090;2022-08-14T04:40:16;1.30;;;0.60;;
19778;SDS011;10049;59.306;18.090;2022-08-14T04:43:00;1.40;;;0.70;;
19778;SDS011;10049;59.306;18.090;2022-08-14T04:45:45;1.35;;;0.70;;
19778;SDS011;10049;59.306;18.090;2022-08-14T04:48:15;2.35;;;0.60;;
19778;SDS011;10049;59.306;18.090;2022-08-14T04:50:45;1.60;;;0.50;;
19778;SDS011;10049;59.306;18.090;2022-08-14T04:53:14;0.73;;;0.50;;
19778;SDS011;10049;59.306;18.090;2022-08-14T04:55:41;0.60;;;0.60;;
19778;SDS011;10049;59.306;18.090;2022-08-14T04:58:12;1.17;;;0.60;;
19778;SDS011;10049;59.306;18.090;2022-08-14T05:00:41;0.55;;;0.45;;
19778;SDS011;10049;59.306;18.090;2022-08-14T05:03:09;2.05;;;0.55;;
19778;SDS011;10049;59.306;18.090;2022-08-14T05:05:40;0.40;;;0.40;;
19778;SDS011;10049;59.306;18.090;2022-08-14T05:08:08;1.05;;;0.50;;
19778;SDS011;10049;59.306;18.090;2022-08-14T05:10:37;0.50;;;0.40;;
19778;SDS011;10049;59.306;18.090;2022-08-14T05:13:06;0.45;;;0.40;;
19778;SDS011;10049;59.306;18.090;2022-08-14T05:15:33;1.58;;;0.50;;
19778;SDS011;10049;59.306;18.090;2022-08-14T05:18:02;1.27;;;0.50;;
19778;SDS011;10049;59.306;18.090;2022-08-14T05:20:33;0.43;;;0.43;;
19778;SDS011;10049;59.306;18.090;2022-08-14T05:23:02;0.68;;;0.40;;
19778;SDS011;10049;59.306;18.090;2022-08-14T05:25:29;1.42;;;0.55;;
19778;SDS011;10049;59.306;18.090;2022-08-14T05:28:04;3.58;;;0.55;;
19778;SDS011;10049;59.306;18.090;2022-08-14T05:30:32;3.10;;;0.40;;
19778;SDS011;10049;59.306;18.090;2022-08-14T05:32:59;1.27;;;0.43;;
19778;SDS011;10049;59.306;18.090;2022-08-14T05:35:26;0.98;;;0.50;;
19778;SDS011;10049;59.306;18.090;2022-08-14T05:37:56;0.52;;;0.40;;
19778;SDS011;10049;59.306;18.090;2022-08-14T05:40:28;1.30;;;0.40;;
19778;SDS011;10049;59.306;18.090;2022-08-14T05:42:56;0.68;;;0.47;;
19778;SDS011;10049;59.306;18.090;2022-08-14T05:45:23;1.67;;;0.47;;
19778;SDS011;10049;59.306;18.090;2022-08-14T05:47:50;2.15;;;0.40;;
19778;SDS011;10049;59.306;18.090;2022-08-14T05:50:18;0.55;;;0.40;;
19778;SDS011;10049;59.306;18.090;2022-08-14T05:52:46;0.98;;;0.40;;
19778;SDS011;10049;59.306;18.090;2022-08-14T05:55:14;4.75;;;0.52;;
19778;SDS011;10049;59.306;18.090;2022-08-14T05:57:47;2.33;;;0.32;;
19778;SDS011;10049;59.306;18.090;2022-08-14T06:00:15;1.38;;;0.75;;
19778;SDS011;10049;59.306;18.090;2022-08-14T06:02:44;1.20;;;0.50;;
19778;SDS011;10049;59.306;18.090;2022-08-14T06:05:12;0.40;;;0.40;;
19778;SDS011;10049;59.306;18.090;2022-08-14T06:07:39;0.30;;;0.30;;
19778;SDS011;10049;59.306;18.090;2022-08-14T06:10:07;0.35;;;0.35;;
19778;SDS011;10049;59.306;18.090;2022-08-14T06:12:35;1.50;;;0.40;;
19778;SDS011;10049;59.306;18.090;2022-08-14T06:15:06;3.03;;;0.32;;
19778;SDS011;10049;59.306;18.090;2022-08-14T06:17:44;0.35;;;0.30;;
19778;SDS011;10049;59.306;18.090;2022-08-14T06:20:13;0.30;;;0.30;;
19778;SDS011;10049;59.306;18.090;2022-08-14T06:22:40;0.57;;;0.50;;
19778;SDS011;10049;59.306;18.090;2022-08-14T06:25:10;0.85;;;0.50;;
19778;SDS011;10049;59.306;18.090;2022-08-14T06:27:38;0.65;;;0.50;;
19778;SDS011;10049;59.306;18.090;2022-08-14T06:30:08;0.88;;;0.40;;
19778;SDS011;10049;59.306;18.090;2022-08-14T06:32:36;2.40;;;0.50;;
19778;SDS011;10049;59.306;18.090;2022-08-14T06:35:04;0.22;;;0.20;;
19778;SDS011;10049;59.306;18.090;2022-08-14T06:37:39;0.70;;;0.30;;
19778;SDS011;10049;59.306;18.090;2022-08-14T06:40:07;1.73;;;0.50;;
19778;SDS011;10049;59.306;18.090;2022-08-14T06:42:34;4.35;;;0.40;;
19778;SDS011;10049;59.306;18.090;2022-08-14T06:45:02;0.75;;;0.30;;
19778;SDS011;10049;59.306;18.090;2022-08-14T06:47:34;3.13;;;0.40;;
19778;SDS011;10049;59.306;18.090;2022-08-14T06:50:01;1.13;;;0.40;;
19778;SDS011;10049;59.306;18.090;2022-08-14T06:52:29;3.35;;;0.55;;
19778;SDS011;10049;59.306;18.090;2022-08-14T06:54:57;0.75;;;0.40;;
19778;SDS011;10049;59.306;18.090;2022-08-14T06:57:25;0.90;;;0.45;;
19778;SDS011;10049;59.306;18.090;2022-08-14T06:59:52;1.30;;;0.47;;
19778;SDS011;10049;59.306;18.090;2022-08-14T07:02:20;0.63;;;0.50;;
19778;SDS011;10049;59.306;18.090;2022-08-14T07:05:06;0.73;;;0.20;;
19778;SDS011;10049;59.306;18.090;2022-08-14T07:07:51;0.60;;;0.32;;
19778;SDS011;10049;59.306;18.090;2022-08-14T07:10:19;2.40;;;0.40;;
19778;SDS011;10049;59.306;18.090;2022-08-14T07:12:47;2.70;;;0.30;;
19778;SDS011;10049;59.306;18.090;2022-08-14T07:15:15;0.73;;;0.30;;
19778;SDS011;10049;59.306;18.090;2022-08-14T07:17:43;3.65;;;0.50;;
19778;SDS011;10049;59.306;18.090;2022-08-14T07:20:13;3.00;;;0.30;;
19778;SDS011;10049;59.306;18.090;2022-08-14T07:22:44;1.75;;;0.70;;
19778;SDS011;10049;59.306;18.090;2022-08-14T07:25:12;0.65;;;0.40;;
19778;SDS011;10049;59.306;18.090;2022-08-14T07:27:40;1.90;;;0.40;;
19778;SDS011;10049;59.306;18.090;2022-08-14T07:30:08;5.22;;;0.50;;
19778;SDS011;10049;59.306;18.090;2022-08-14T07:32:36;2.03;;;0.40;;
19778;SDS011;10049;59.306;18.090;2022-08-14T07:35:04;1.98;;;0.38;;
19778;SDS011;10049;59.306;18.090;2022-08-14T07:37:33;0.45;;;0.40;;
19778;SDS011;10049;59.306;18.090;2022-08-14T07:40:02;0.82;;;0.40;;
19778;SDS011;10049;59.306;18.090;2022-08-14T07:42:30;0.30;;;0.30;;
19778;SDS011;10049;59.306;18.090;2022-08-14T07:44:57;0.40;;;0.22;;
19778;SDS011;10049;59.306;18.090;2022-08-14T07:47:25;2.35;;;0.60;;
19778;SDS011;10049;59.306;18.090;2022-08-14T07:49:56;0.88;;;0.40;;
19778;SDS011;10049;59.306;18.090;2022-08-14T07:52:24;2.22;;;0.40;;
19778;SDS011;10049;59.306;18.090;2022-08-14T07:54:53;2.47;;;0.35;;
19778;SDS011;10049;59.306;18.090;2022-08-14T07:57:21;3.10;;;0.40;;
19778;SDS011;10049;59.306;18.090;2022-08-14T07:59:50;2.80;;;0.57;;
19778;SDS011;10049;59.306;18.090;2022-08-14T08:02:17;0.57;;;0.30;;
19778;SDS011;10049;59.306;18.090;2022-08-14T08:04:46;4.10;;;0.40;;
19778;SDS011;10049;59.306;18.090;2022-08-14T08:07:14;1.25;;;0.50;;
19778;SDS011;10049;59.306;18.090;2022-08-14T08:09:42;0.65;;;0.30;;
19778;SDS011;10049;59.306;18.090;2022-08-14T08:12:11;2.17;;;0.30;;
19778;SDS011;10049;59.306;18.090;2022-08-14T08:14:40;0.77;;;0.30;;
19778;SDS011;10049;59.306;18.090;2022-08-14T08:17:09;2.25;;;0.50;;
19778;SDS011;10049;59.306;18.090;2022-08-14T08:19:37;2.60;;;0.40;;
19778;SDS011;10049;59.306;18.090;2022-08-14T08:22:05;2.10;;;0.30;;
19778;SDS011;10049;59.306;18.090;2022-08-14T08:24:32;3.67;;;0.43;;
19778;SDS011;10049;59.306;18.090;2022-08-14T08:27:00;0.85;;;0.40;;
19778;SDS011;10049;59.306;18.090;2022-08-14T08:29:29;2.85;;;0.30;;
19778;SDS011;10049;59.306;18.090;2022-08-14T08:31:57;0.45;;;0.25;;
19778;SDS011;10049;59.306;18.090;2022-08-14T08:34:26;1.00;;;0.30;;
19778;SDS011;10049;59.306;18.090;2022-08-14T08:36:56;0.73;;;0.32;;
19778;SDS011;10049;59.306;18.090;2022-08-14T08:39:24;1.92;;;0.30;;
19778;SDS011;10049;59.306;18.090;2022-08-14T08:41:51;1.05;;;0.30;;
19778;SDS011;10049;59.306;18.090;2022-08-14T08:44:19;3.70;;;0.30;;
19778;SDS011;10049;59.306;18.090;2022-08-14T08:46:56;0.28;;;0.28;;
19778;SDS011;10049;59.306;18.090;2022-08-14T08:49:38;0.30;;;0.28;;
19778;SDS011;10049;59.306;18.090;2022-08-14T08:52:07;0.93;;;0.25;;
19778;SDS011;10049;59.306;18.090;2022-08-14T08:54:35;1.98;;;0.30;;
19778;SDS011;10049;59.306;18.090;2022-08-14T08:57:09;2.60;;;0.30;;
19778;SDS011;10049;59.306;18.090;2022-08-14T08:59:36;0.68;;;0.20;;
19778;SDS011;10049;59.306;18.090;2022-08-14T09:02:08;1.40;;;0.32;;
19778;SDS011;10049;59.306;18.090;2022-08-14T09:04:37;1.67;;;0.40;;
19778;SDS011;10049;59.306;18.090;2022-08-14T09:07:05;0.70;;;0.40;;
19778;SDS011;10049;59.306;18.090;2022-08-14T09:09:33;1.10;;;0.50;;
19778;SDS011;10049;59.306;18.090;2022-08-14T09:12:16;0.30;;;0.30;;
19778;SDS011;10049;59.306;18.090;2022-08-14T09:14:45;1.27;;;0.20;;
19778;SDS011;10049;59.306;18.090;2022-08-14T09:17:16;2.15;;;0.30;;
19778;SDS011;10049;59.306;18.090;2022-08-14T09:19:44;2.38;;;0.30;;
19778;SDS011;10049;59.306;18.090;2022-08-14T09:22:12;1.15;;;0.30;;
19778;SDS011;10049;59.306;18.090;2022-08-14T09:24:40;0.50;;;0.30;;
19778;SDS011;10049;59.306;18.090;2022-08-14T09:27:11;1.60;;;0.43;;
19778;SDS011;10049;59.306;18.090;2022-08-14T09:29:38;0.20;;;0.20;;
19778;SDS011;10049;59.306;18.090;2022-08-14T09:32:07;0.65;;;0.20;;
19778;SDS011;10049;59.306;18.090;2022-08-14T09:34:41;0.52;;;0.30;;
19778;SDS011;10049;59.306;18.090;2022-08-14T09:37:16;0.60;;;0.25;;
19778;SDS011;10049;59.306;18.090;2022-08-14T09:39:50;1.08;;;0.30;;
19778;SDS011;10049;59.306;18.090;2022-08-14T09:42:28;1.48;;;0.30;;
19778;SDS011;10049;59.306;18.090;2022-08-14T09:45:03;1.88;;;0.32;;
19778;SDS011;10049;59.306;18.090;2022-08-14T09:47:45;0.65;;;0.20;;
19778;SDS011;10049;59.306;18.090;2022-08-14T09:50:21;0.45;;;0.30;;
19778;SDS011;10049;59.306;18.090;2022-08-14T09:52:50;1.15;;;0.30;;
19778;SDS011;10049;59.306;18.090;2022-08-14T09:55:17;3.33;;;0.30;;
19778;SDS011;10049;59.306;18.090;2022-08-14T09:57:48;0.75;;;0.30;;
19778;SDS011;10049;59.306;18.090;2022-08-14T10:00:16;1.60;;;0.30;;
19778;SDS011;10049;59.306;18.090;2022-08-14T10:02:51;2.85;;;0.28;;
19778;SDS011;10049;59.306;18.090;2022-08-14T10:08:15;1.58;;;0.43;;
19778;SDS011;10049;59.306;18.090;2022-08-14T10:10:42;2.00;;;0.40;;
19778;SDS011;10049;59.306;18.090;2022-08-14T10:13:20;1.42;;;0.35;;
19778;SDS011;10049;59.306;18.090;2022-08-14T10:15:48;1.20;;;0.30;;
19778;SDS011;10049;59.306;18.090;2022-08-14T10:18:18;0.40;;;0.30;;
19778;SDS011;10049;59.306;18.090;2022-08-14T10:20:51;0.50;;;0.40;;
19778;SDS011;10049;59.306;18.090;2022-08-14T10:23:21;0.52;;;0.40;;
19778;SDS011;10049;59.306;18.090;2022-08-14T10:25:50;0.90;;;0.35;;
19778;SDS011;10049;59.306;18.090;2022-08-14T10:28:18;0.32;;;0.30;;
19778;SDS011;10049;59.306;18.090;2022-08-14T10:30:47;0.40;;;0.40;;
19778;SDS011;10049;59.306;18.090;2022-08-14T10:33:24;0.93;;;0.50;;
19778;SDS011;10049;59.306;18.090;2022-08-14T10:35:53;1.92;;;0.50;;
19778;SDS011;10049;59.306;18.090;2022-08-14T10:38:31;0.32;;;0.32;;
19778;SDS011;10049;59.306;18.090;2022-08-14T10:41:11;0.98;;;0.30;;
19778;SDS011;10049;59.306;18.090;2022-08-14T10:43:39;0.65;;;0.40;;
19778;SDS011;10049;59.306;18.090;2022-08-14T10:46:12;0.43;;;0.40;;
19778;SDS011;10049;59.306;18.090;2022-08-14T10:48:40;1.75;;;0.47;;
19778;SDS011;10049;59.306;18.090;2022-08-14T10:51:10;3.70;;;0.40;;
19778;SDS011;10049;59.306;18.090;2022-08-14T10:53:42;0.70;;;0.32;;
19778;SDS011;10049;59.306;18.090;2022-08-14T10:56:27;0.38;;;0.38;;
19778;SDS011;10049;59.306;18.090;2022-08-14T10:58:59;0.70;;;0.35;;
19778;SDS011;10049;59.306;18.090;2022-08-14T11:01:29;0.50;;;0.40;;
19778;SDS011;10049;59.306;18.090;2022-08-14T11:04:00;0.75;;;0.35;;
19778;SDS011;10049;59.306;18.090;2022-08-14T11:06:28;0.47;;;0.40;;
19778;SDS011;10049;59.306;18.090;2022-08-14T11:08:58;0.20;;;0.20;;
19778;SDS011;10049;59.306;18.090;2022-08-14T11:11:43;0.60;;;0.40;;
19778;SDS011;10049;59.306;18.090;2022-08-14T11:14:20;0.45;;;0.30;;
19778;SDS011;10049;59.306;18.090;2022-08-14T11:16:47;0.25;;;0.25;;
19778;SDS011;10049;59.306;18.090;2022-08-14T11:19:16;1.40;;;0.60;;
19778;SDS011;10049;59.306;18.090;2022-08-14T11:21:46;1.58;;;0.30;;
19778;SDS011;10049;59.306;18.090;2022-08-14T11:24:17;0.30;;;0.30;;
19778;SDS011;10049;59.306;18.090;2022-08-14T11:26:46;0.28;;;0.28;;
19778;SDS011;10049;59.306;18.090;2022-08-14T11:29:14;0.40;;;0.30;;
19778;SDS011;10049;59.306;18.090;2022-08-14T11:31:42;0.52;;;0.30;;
19778;SDS011;10049;59.306;18.090;2022-08-14T11:34:10;0.22;;;0.22;;
19778;SDS011;10049;59.306;18.090;2022-08-14T11:36:39;0.52;;;0.20;;
19778;SDS011;10049;59.306;18.090;2022-08-14T11:39:08;0.25;;;0.25;;
19778;SDS011;10049;59.306;18.090;2022-08-14T11:41:45;3.97;;;0.30;;
19778;SDS011;10049;59.306;18.090;2022-08-14T11:44:25;1.88;;;0.43;;
19778;SDS011;10049;59.306;18.090;2022-08-14T11:46:59;0.80;;;0.40;;
19778;SDS011;10049;59.306;18.090;2022-08-14T11:49:41;0.90;;;0.40;;
19778;SDS011;10049;59.306;18.090;2022-08-14T11:52:10;0.50;;;0.30;;
19778;SDS011;10049;59.306;18.090;2022-08-14T11:54:38;0.30;;;0.30;;
19778;SDS011;10049;59.306;18.090;2022-08-14T11:57:14;0.90;;;0.50;;
19778;SDS011;10049;59.306;18.090;2022-08-14T11:59:41;0.95;;;0.30;;
19778;SDS011;10049;59.306;18.090;2022-08-14T12:02:10;1.17;;;0.30;;
19778;SDS011;10049;59.306;18.090;2022-08-14T12:04:47;0.60;;;0.32;;
19778;SDS011;10049;59.306;18.090;2022-08-14T12:07:15;0.40;;;0.40;;
19778;SDS011;10049;59.306;18.090;2022-08-14T12:09:43;4.38;;;0.73;;
19778;SDS011;10049;59.306;18.090;2022-08-14T12:12:14;1.52;;;0.50;;
19778;SDS011;10049;59.306;18.090;2022-08-14T12:14:48;1.13;;;0.43;;
19778;SDS011;10049;59.306;18.090;2022-08-14T12:17:21;0.47;;;0.30;;
19778;SDS011;10049;59.306;18.090;2022-08-14T12:19:52;3.05;;;0.55;;
19778;SDS011;10049;59.306;18.090;2022-08-14T12:22:31;1.10;;;0.50;;
19778;SDS011;10049;59.306;18.090;2022-08-14T12:24:59;1.05;;;0.55;;
19778;SDS011;10049;59.306;18.090;2022-08-14T12:27:38;2.35;;;0.60;;
19778;SDS011;10049;59.306;18.090;2022-08-14T12:30:07;1.75;;;0.50;;
19778;SDS011;10049;59.306;18.090;2022-08-14T12:32:39;0.52;;;0.50;;
19778;SDS011;10049;59.306;18.090;2022-08-14T12:35:07;1.92;;;0.60;;
19778;SDS011;10049;59.306;18.090;2022-08-14T12:37:35;3.22;;;0.60;;
19778;SDS011;10049;59.306;18.090;2022-08-14T12:40:10;1.58;;;0.50;;
19778;SDS011;10049;59.306;18.090;2022-08-14T12:42:40;0.63;;;0.50;;
19778;SDS011;10049;59.306;18.090;2022-08-14T12:45:08;0.47;;;0.40;;
19778;SDS011;10049;59.306;18.090;2022-08-14T12:47:37;1.13;;;0.68;;
19778;SDS011;10049;59.306;18.090;2022-08-14T12:50:07;1.38;;;0.60;;
19778;SDS011;10049;59.306;18.090;2022-08-14T12:52:36;4.68;;;0.80;;
19778;SDS011;10049;59.306;18.090;2022-08-14T12:55:05;2.70;;;0.68;;
19778;SDS011;10049;59.306;18.090;2022-08-14T12:57:35;5.65;;;0.75;;
19778;SDS011;10049;59.306;18.090;2022-08-14T13:00:12;2.38;;;0.70;;
19778;SDS011;10049;59.306;18.090;2022-08-14T13:02:43;3.15;;;0.70;;
19778;SDS011;10049;59.306;18.090;2022-08-14T13:05:11;4.63;;;0.45;;
19778;SDS011;10049;59.306;18.090;2022-08-14T13:07:40;2.25;;;0.70;;
19778;SDS011;10049;59.306;18.090;2022-08-14T13:10:09;4.22;;;0.57;;
19778;SDS011;10049;59.306;18.090;2022-08-14T13:12:40;3.30;;;0.60;;
19778;SDS011;10049;59.306;18.090;2022-08-14T13:15:09;2.38;;;0.70;;
19778;SDS011;10049;59.306;18.090;2022-08-14T13:17:44;3.22;;;0.60;;
19778;SDS011;10049;59.306;18.090;2022-08-14T13:20:14;4.22;;;0.50;;
19778;SDS011;10049;59.306;18.090;2022-08-14T13:22:42;5.63;;;0.90;;
19778;SDS011;10049;59.306;18.090;2022-08-14T13:25:11;3.20;;;0.80;;
19778;SDS011;10049;59.306;18.090;2022-08-14T13:27:39;3.58;;;0.80;;
19778;SDS011;10049;59.306;18.090;2022-08-14T13:30:09;2.00;;;0.70;;
19778;SDS011;10049;59.306;18.090;2022-08-14T13:32:38;6.70;;;0.80;;
19778;SDS011;10049;59.306;18.090;2022-08-14T13:35:10;5.30;;;0.80;;
19778;SDS011;10049;59.306;18.090;2022-08-14T13:37:39;3.30;;;0.82;;
19778;SDS011;10049;59.306;18.090;2022-08-14T13:40:08;3.85;;;0.75;;
19778;SDS011;10049;59.306;18.090;2022-08-14T13:42:35;2.50;;;0.70;;
19778;SDS011;10049;59.306;18.090;2022-08-14T13:45:03;7.13;;;0.90;;
19778;SDS011;10049;59.306;18.090;2022-08-14T13:47:31;7.82;;;0.88;;
19778;SDS011;10049;59.306;18.090;2022-08-14T13:50:01;4.40;;;0.82;;
19778;SDS011;10049;59.306;18.090;2022-08-14T13:52:32;4.55;;;0.88;;
19778;SDS011;10049;59.306;18.090;2022-08-14T13:55:01;6.00;;;0.80;;
19778;SDS011;10049;59.306;18.090;2022-08-14T13:57:30;3.47;;;0.70;;
19778;SDS011;10049;59.306;18.090;2022-08-14T14:00:01;5.10;;;0.90;;
19778;SDS011;10049;59.306;18.090;2022-08-14T14:02:32;7.82;;;0.93;;
19778;SDS011;10049;59.306;18.090;2022-08-14T14:05:01;2.33;;;0.75;;
19778;SDS011;10049;59.306;18.090;2022-08-14T14:07:31;12.15;;;0.90;;
19778;SDS011;10049;59.306;18.090;2022-08-14T14:10:02;2.58;;;0.90;;
19778;SDS011;10049;59.306;18.090;2022-08-14T14:12:31;7.70;;;1.15;;
19778;SDS011;10049;59.306;18.090;2022-08-14T14:15:00;3.75;;;0.80;;
19778;SDS011;10049;59.306;18.090;2022-08-14T14:17:27;3.47;;;0.77;;
19778;SDS011;10049;59.306;18.090;2022-08-14T14:19:55;4.82;;;1.00;;
19778;SDS011;10049;59.306;18.090;2022-08-14T14:22:24;6.30;;;0.90;;
19778;SDS011;10049;59.306;18.090;2022-08-14T14:24:53;3.53;;;0.88;;
19778;SDS011;10049;59.306;18.090;2022-08-14T14:27:21;2.58;;;0.73;;
19778;SDS011;10049;59.306;18.090;2022-08-14T14:29:51;3.58;;;0.77;;
19778;SDS011;10049;59.306;18.090;2022-08-14T14:32:20;3.13;;;0.80;;
19778;SDS011;10049;59.306;18.090;2022-08-14T14:34:55;7.22;;;0.70;;
19778;SDS011;10049;59.306;18.090;2022-08-14T14:37:26;1.73;;;0.57;;
19778;SDS011;10049;59.306;18.090;2022-08-14T14:39:56;7.50;;;0.80;;
19778;SDS011;10049;59.306;18.090;2022-08-14T14:42:24;2.38;;;0.70;;
19778;SDS011;10049;59.306;18.090;2022-08-14T14:44:55;4.38;;;0.70;;
19778;SDS011;10049;59.306;18.090;2022-08-14T14:47:24;3.03;;;0.68;;
19778;SDS011;10049;59.306;18.090;2022-08-14T14:49:53;2.35;;;0.80;;
19778;SDS011;10049;59.306;18.090;2022-08-14T14:52:24;2.05;;;0.90;;